createdAt,value
2022-09-02T00:02:28.887Z,5.10
2022-09-02T00:05:08.923Z,7.30
2022-09-02T00:07:55.732Z,6.90
2022-09-02T00:10:42.786Z,9.40
2022-09-02T00:13:29.773Z,6.78
2022-09-02T00:16:11.583Z,5.07
2022-09-02T00:18:59.744Z,5.53
2022-09-02T00:21:41.873Z,7.18
2022-09-02T00:24:29.753Z,7.30
2022-09-02T00:27:16.757Z,6.20
2022-09-02T00:30:03.828Z,6.63
2022-09-02T00:32:43.723Z,5.63
2022-09-02T00:35:30.702Z,5.63
2022-09-02T00:38:11.841Z,7.05
2022-09-02T00:40:58.710Z,7.38
2022-09-02T00:43:49.817Z,6.55
2022-09-02T00:46:39.697Z,9.20
2022-09-02T00:49:32.756Z,6.38
2022-09-02T00:52:24.139Z,6.35
2022-09-02T00:55:31.703Z,6.68
2022-09-02T00:58:32.797Z,6.60
2022-09-02T01:01:12.836Z,7.00
2022-09-02T01:04:00.825Z,7.20
2022-09-02T01:06:41.665Z,6.82
2022-09-02T01:09:22.474Z,6.75
2022-09-02T01:12:09.690Z,5.95
2022-09-02T01:14:50.674Z,6.45
2022-09-02T01:17:40.697Z,6.03
2022-09-02T01:20:31.673Z,7.95
2022-09-02T01:23:12.829Z,8.60
2022-09-02T01:25:59.648Z,6.90
2022-09-02T01:28:53.696Z,7.22
2022-09-02T01:31:41.710Z,7.38
2022-09-02T01:34:29.683Z,5.93
2022-09-02T01:37:10.568Z,6.40
2022-09-02T01:39:58.677Z,6.25
2022-09-02T01:42:39.960Z,7.57
2022-09-02T01:45:27.667Z,7.63
2022-09-02T01:48:09.321Z,8.93
2022-09-02T01:50:59.662Z,5.82
2022-09-02T01:53:40.032Z,7.15
2022-09-02T01:56:26.664Z,6.10
2022-09-02T01:59:09.634Z,6.32
2022-09-02T02:01:56.695Z,8.20
2022-09-02T02:04:44.629Z,7.80
2022-09-02T02:07:31.673Z,4.68
2022-09-02T02:10:12.818Z,7.22
2022-09-02T02:13:00.591Z,5.68
2022-09-02T02:15:53.664Z,6.50
2022-09-02T02:18:34.117Z,5.43
2022-09-02T02:21:20.738Z,6.53
2022-09-02T02:24:01.399Z,8.57
2022-09-02T02:26:49.572Z,5.63
2022-09-02T02:29:36.602Z,5.95
2022-09-02T02:32:26.565Z,6.60
2022-09-02T02:35:14.609Z,6.07
2022-09-02T02:38:03.663Z,6.70
2022-09-02T02:40:50.634Z,4.68
2022-09-02T02:43:39.591Z,5.05
2022-09-02T02:46:27.627Z,5.43
2022-09-02T02:49:15.596Z,5.93
2022-09-02T02:51:56.038Z,5.78
2022-09-02T02:54:43.564Z,6.63
2022-09-02T02:57:30.582Z,8.43
2022-09-02T03:00:30.620Z,7.75
2022-09-02T03:03:17.573Z,6.10
2022-09-02T03:26:01.021Z,4.15
2022-09-02T03:28:51.084Z,8.07
2022-09-02T03:31:41.100Z,5.38
2022-09-02T03:34:28.046Z,5.80
2022-09-02T03:37:17.045Z,4.43
2022-09-02T03:39:57.450Z,6.57
2022-09-02T03:42:45.035Z,7.03
2022-09-02T03:45:29.356Z,6.35
2022-09-02T03:48:19.025Z,7.25
2022-09-02T03:50:59.434Z,3.70
2022-09-02T03:53:46.023Z,6.18
2022-09-02T03:56:26.566Z,8.23
2022-09-02T03:59:07.025Z,6.95
2022-09-02T04:01:47.299Z,5.70
2022-09-02T04:04:33.980Z,6.55
2022-09-02T04:07:21.042Z,6.18
2022-09-02T04:10:03.008Z,8.30
2022-09-02T04:12:50.989Z,4.95
2022-09-02T04:15:31.114Z,7.95
2022-09-02T04:18:19.015Z,6.57
2022-09-02T04:21:00.145Z,5.20
2022-09-02T04:23:56.005Z,9.25
2022-09-02T04:26:37.094Z,7.68
2022-09-02T04:29:32.981Z,7.20
2022-09-02T04:32:19.996Z,6.47
2022-09-02T04:35:00.094Z,8.60
2022-09-02T04:37:47.973Z,11.65
2022-09-02T04:40:35.083Z,7.97
2022-09-02T04:43:15.509Z,7.95
2022-09-02T04:46:03.025Z,10.90
2022-09-02T04:48:50.967Z,4.32
2022-09-02T04:51:39.964Z,6.28
2022-09-02T04:54:20.328Z,5.80
2022-09-02T04:57:10.928Z,6.55
2022-09-02T04:59:51.404Z,9.02
2022-09-02T05:02:38.983Z,10.73
2022-09-02T05:05:19.575Z,6.13
2022-09-02T05:08:05.954Z,4.55
2022-09-02T05:10:48.359Z,5.72
2022-09-02T05:13:34.966Z,7.00
2022-09-02T05:16:17.067Z,6.43
2022-09-02T05:19:05.942Z,11.90
2022-09-02T05:21:51.187Z,4.35
2022-09-02T05:24:42.923Z,6.28
2022-09-02T05:27:23.648Z,5.82
2022-09-02T05:30:14.936Z,8.35
2022-09-02T05:32:55.476Z,4.45
2022-09-02T05:35:45.399Z,7.30
2022-09-02T05:38:33.929Z,8.65
2022-09-02T05:41:17.418Z,6.40
2022-09-02T05:44:07.920Z,5.35
2022-09-02T05:46:54.915Z,7.05
2022-09-02T05:49:41.917Z,11.05
2022-09-02T05:52:23.110Z,9.40
2022-09-02T05:55:10.897Z,11.73
2022-09-02T05:57:51.032Z,11.98
2022-09-02T06:00:37.865Z,8.32
2022-09-02T06:03:25.918Z,14.35
2022-09-02T06:06:13.903Z,7.28
2022-09-02T06:08:53.993Z,9.38
2022-09-02T06:11:41.913Z,13.88
2022-09-02T06:14:30.912Z,7.72
2022-09-02T06:17:18.861Z,9.25
2022-09-02T06:20:00.031Z,6.78
2022-09-02T06:22:47.884Z,10.70
2022-09-02T06:25:35.961Z,10.35
2022-09-02T06:28:16.858Z,6.85
2022-09-02T06:31:04.945Z,6.72
2022-09-02T06:33:45.056Z,8.50
2022-09-02T06:36:36.892Z,7.55
2022-09-02T06:39:21.120Z,11.15
2022-09-02T06:42:09.847Z,10.57
2022-09-02T06:45:15.863Z,9.52
2022-09-02T06:48:02.868Z,10.23
2022-09-02T06:50:48.969Z,16.27
2022-09-02T06:53:35.843Z,9.25
2022-09-02T06:56:16.015Z,7.25
2022-09-02T06:59:03.859Z,9.32
2022-09-02T07:02:07.962Z,10.95
2022-09-02T07:05:06.870Z,13.80
2022-09-02T07:07:58.812Z,9.45
2022-09-02T07:10:47.848Z,6.60
2022-09-02T07:13:28.934Z,12.73
2022-09-02T07:16:15.838Z,7.90
2022-09-02T07:19:17.366Z,12.73
2022-09-02T07:24:50.813Z,11.18
2022-09-02T07:27:41.920Z,13.68
2022-09-02T07:30:21.794Z,30.60
2022-09-02T07:33:20.820Z,9.93
2022-09-02T07:36:01.956Z,8.98
2022-09-02T07:38:49.816Z,12.00
2022-09-02T07:41:32.004Z,7.10
2022-09-02T07:44:19.786Z,11.50
2022-09-02T07:46:59.897Z,9.88
2022-09-02T07:52:50.576Z,7.82
2022-09-02T07:55:41.763Z,9.23
2022-09-02T07:58:32.416Z,10.43
2022-09-02T08:01:23.339Z,10.88
2022-09-02T08:04:10.792Z,10.27
2022-09-02T08:06:52.939Z,9.05
2022-09-02T08:09:39.871Z,9.20
2022-09-02T08:12:22.244Z,6.57
2022-09-02T08:15:09.792Z,14.02
2022-09-02T08:17:50.497Z,7.32
2022-09-02T08:20:37.760Z,11.23
2022-09-02T08:23:35.616Z,10.00
2022-09-02T08:26:24.743Z,13.20
2022-09-02T08:29:06.533Z,7.22
2022-09-02T08:31:54.255Z,6.80
2022-09-02T08:34:34.343Z,11.48
2022-09-02T08:37:20.732Z,13.77
2022-09-02T08:40:06.483Z,11.68
2022-09-02T08:43:09.777Z,9.70
2022-09-02T08:45:57.775Z,7.55
2022-09-02T08:49:04.753Z,10.30
2022-09-02T08:51:53.464Z,15.77
2022-09-02T08:55:02.729Z,10.52
2022-09-02T08:57:45.558Z,8.45
2022-09-02T09:00:32.744Z,7.15
2022-09-02T09:03:30.876Z,9.48
2022-09-02T09:06:38.741Z,11.07
2022-09-02T09:09:37.700Z,7.15
2022-09-02T09:13:10.697Z,13.43
2022-09-02T09:16:20.175Z,9.10
2022-09-02T09:19:14.702Z,8.88
2022-09-02T09:22:00.729Z,10.15
2022-09-02T09:24:54.684Z,7.00
2022-09-02T09:30:28.687Z,8.93
2022-09-02T09:33:17.383Z,8.23
2022-09-02T09:36:10.694Z,9.57
2022-09-02T09:38:54.120Z,6.18
2022-09-02T09:41:40.696Z,6.10
2022-09-02T09:44:50.637Z,11.23
2022-09-02T09:47:39.697Z,12.75
2022-09-02T09:50:20.269Z,9.57
2022-09-02T09:53:08.654Z,8.50
2022-09-02T09:56:04.694Z,10.73
2022-09-02T09:58:54.671Z,15.23
2022-09-02T10:01:42.677Z,10.07
2022-09-02T10:04:43.390Z,6.80
2022-09-02T10:07:49.644Z,11.43
2022-09-02T10:10:39.632Z,10.40
2022-09-02T10:13:31.673Z,12.18
2022-09-02T10:16:27.732Z,14.27
2022-09-02T10:19:30.379Z,6.55
2022-09-02T10:22:41.675Z,21.10
2022-09-02T10:26:02.748Z,8.65
2022-09-02T10:28:52.640Z,11.32
2022-09-02T10:31:49.132Z,9.55
2022-09-02T10:34:41.606Z,10.05
2022-09-02T10:37:31.648Z,9.88
2022-09-02T10:40:16.779Z,10.90
2022-09-02T10:43:13.591Z,10.60
2022-09-02T10:45:56.239Z,10.00
2022-09-02T10:49:12.600Z,9.15
2022-09-02T10:52:05.548Z,9.95
2022-09-02T10:55:22.574Z,7.33
2022-09-02T10:58:16.625Z,14.18
2022-09-02T11:03:54.762Z,11.40
2022-09-02T11:07:05.807Z,11.32
2022-09-02T11:10:02.626Z,12.43
2022-09-02T11:13:07.536Z,13.15
2022-09-02T11:16:18.709Z,19.73
2022-09-02T11:19:19.554Z,14.23
2022-09-02T11:22:14.568Z,13.13
2022-09-02T11:25:13.565Z,13.00
2022-09-02T11:28:23.598Z,9.57
2022-09-02T11:31:25.567Z,17.05
2022-09-02T11:34:23.561Z,11.55
2022-09-02T11:37:25.303Z,14.77
2022-09-02T11:40:36.284Z,13.15
2022-09-02T11:43:35.154Z,13.35
2022-09-02T11:47:14.546Z,13.45
2022-09-02T11:50:03.554Z,13.35
2022-09-02T11:53:07.667Z,15.48
2022-09-02T11:56:05.587Z,13.63
2022-09-02T11:58:49.599Z,18.52
2022-09-02T12:01:45.553Z,20.08
2022-09-02T12:07:35.544Z,10.13
2022-09-02T12:10:22.575Z,9.77
2022-09-02T12:13:10.536Z,15.63
2022-09-02T12:15:57.565Z,11.38
2022-09-02T12:18:38.399Z,9.52
2022-09-02T12:21:31.527Z,15.07
2022-09-02T12:24:27.517Z,6.78
2022-09-02T12:27:16.622Z,10.35
2022-09-02T12:29:57.591Z,12.27
2022-09-02T12:32:48.739Z,16.98
2022-09-02T12:36:04.484Z,10.02
2022-09-02T12:38:51.507Z,10.13
2022-09-02T12:41:36.630Z,8.82
2022-09-02T12:44:48.516Z,15.90
2022-09-02T12:47:53.521Z,13.52
2022-09-02T12:50:57.298Z,12.15
2022-09-02T12:53:53.462Z,12.75
2022-09-02T12:56:34.107Z,7.28
2022-09-02T12:59:20.482Z,21.23
2022-09-02T13:02:30.312Z,18.33
2022-09-02T13:05:25.578Z,10.63
2022-09-02T13:08:31.489Z,8.65
2022-09-02T13:11:43.468Z,7.43
2022-09-02T13:14:29.595Z,10.27
2022-09-02T13:17:38.461Z,16.15
2022-09-02T13:20:40.992Z,11.52
2022-09-02T13:23:55.532Z,8.52
2022-09-02T13:26:50.358Z,4.63
2022-09-02T13:29:52.478Z,3.65
2022-09-02T13:32:40.471Z,8.70
2022-09-02T13:35:34.474Z,4.65
2022-09-02T13:38:16.514Z,5.80
2022-09-02T13:41:06.439Z,4.03
2022-09-02T13:43:46.878Z,2.67
2022-09-02T13:46:33.479Z,4.60
2022-09-02T13:49:26.843Z,7.03
2022-09-02T13:52:17.078Z,7.63
2022-09-02T13:55:00.026Z,5.18
2022-09-02T13:57:46.413Z,5.53
2022-09-02T14:00:37.599Z,6.22
2022-09-02T14:03:28.554Z,8.48
2022-09-02T14:06:10.047Z,9.90
2022-09-02T14:08:58.429Z,10.10
2022-09-02T14:11:46.227Z,12.38
2022-09-02T14:14:37.406Z,10.13
2022-09-02T14:17:35.809Z,9.00
2022-09-02T14:20:23.421Z,14.95
2022-09-02T14:23:11.397Z,11.50
2022-09-02T14:26:10.399Z,7.95
2022-09-02T14:28:58.365Z,10.77
2022-09-02T14:31:45.425Z,9.20
2022-09-02T14:34:34.800Z,8.90
2022-09-02T14:37:33.370Z,8.68
2022-09-02T14:40:20.411Z,10.23
2022-09-02T14:43:00.498Z,9.90
2022-09-02T14:45:53.432Z,6.82
2022-09-02T14:48:33.511Z,12.82
2022-09-02T14:51:20.416Z,6.28
2022-09-02T14:54:00.577Z,5.10
2022-09-02T14:57:00.353Z,11.95
2022-09-02T14:59:40.519Z,9.45
2022-09-02T15:02:34.349Z,8.27
2022-09-02T15:05:25.413Z,9.80
2022-09-02T15:08:12.349Z,9.73
2022-09-02T15:10:52.597Z,11.07
2022-09-02T15:27:59.334Z,14.27
2022-09-02T15:30:40.210Z,10.43
2022-09-02T15:33:27.317Z,14.05
2022-09-02T15:36:16.381Z,8.73
2022-09-02T15:38:56.457Z,5.97
2022-09-02T15:41:44.318Z,12.10
2022-09-02T15:44:28.471Z,6.00
2022-09-02T15:50:02.299Z,8.68
2022-09-02T15:52:42.784Z,8.32
2022-09-02T15:55:29.712Z,6.10
2022-09-02T15:58:16.309Z,11.50
2022-09-02T16:01:03.337Z,9.38
2022-09-02T16:03:50.310Z,13.82
2022-09-02T16:06:38.367Z,15.45
2022-09-02T16:09:19.698Z,10.82
2022-09-02T16:12:08.299Z,9.50
2022-09-02T16:14:57.270Z,10.18
2022-09-02T16:17:44.274Z,9.45
2022-09-02T16:20:32.285Z,7.70
2022-09-02T16:23:12.414Z,13.13
2022-09-02T16:26:18.252Z,9.80
2022-09-02T16:29:07.286Z,8.88
2022-09-02T16:32:02.381Z,7.38
2022-09-02T16:34:56.282Z,7.70
2022-09-02T16:37:36.694Z,8.60
2022-09-02T16:40:28.277Z,7.82
2022-09-02T16:43:08.712Z,11.20
2022-09-02T16:45:55.271Z,17.73
2022-09-02T16:48:42.380Z,15.85
2022-09-02T16:51:23.242Z,13.77
2022-09-02T16:54:05.278Z,17.48
2022-09-02T16:56:52.225Z,13.93
2022-09-02T16:59:39.223Z,15.95
2022-09-02T17:02:19.415Z,13.40
2022-09-02T17:07:46.850Z,14.50
2022-09-02T17:10:33.244Z,14.38
2022-09-02T17:13:13.296Z,13.80
2022-09-02T17:16:00.234Z,13.82
2022-09-02T17:18:47.214Z,13.63
2022-09-02T17:21:30.134Z,14.27
2022-09-02T17:24:19.237Z,10.80
2022-09-02T17:27:13.257Z,15.45
2022-09-02T17:29:54.687Z,14.52
2022-09-02T17:32:41.208Z,14.35
2022-09-02T17:35:28.226Z,14.25
2022-09-02T17:38:15.182Z,16.77
2022-09-02T17:41:21.199Z,15.35
2022-09-02T17:44:01.589Z,13.27
2022-09-02T17:46:49.191Z,16.08
2022-09-02T17:49:36.193Z,19.27
2022-09-02T17:52:23.955Z,13.15
2022-09-02T17:55:11.203Z,14.43
2022-09-02T17:58:20.403Z,12.15
2022-09-02T18:01:10.226Z,11.15
2022-09-02T18:04:45.335Z,11.98
2022-09-02T18:08:09.176Z,12.57
2022-09-02T18:10:58.712Z,16.65
2022-09-02T18:13:55.197Z,15.60
2022-09-02T18:17:10.204Z,11.02
2022-09-02T18:20:12.197Z,11.40
2022-09-02T18:23:20.486Z,9.05
2022-09-02T18:26:31.171Z,9.98
2022-09-02T18:29:27.190Z,14.00
2022-09-02T18:32:23.139Z,10.80
2022-09-02T18:35:24.828Z,8.85
2022-09-02T18:38:14.174Z,15.50
2022-09-02T18:41:06.145Z,12.85
2022-09-02T18:44:23.234Z,16.35
2022-09-02T18:47:15.131Z,17.45
2022-09-02T18:49:57.211Z,18.73
2022-09-02T18:52:45.134Z,22.33
2022-09-02T18:55:33.119Z,14.60
2022-09-02T18:58:39.217Z,19.80
2022-09-02T19:01:32.253Z,15.38
2022-09-02T19:04:19.105Z,25.40
2022-09-02T19:07:19.184Z,18.40
2022-09-02T19:10:08.073Z,19.90
2022-09-02T19:12:48.257Z,25.17
2022-09-02T19:15:35.893Z,22.92
2022-09-02T19:18:24.279Z,25.10
2022-09-02T19:21:11.125Z,24.65
2022-09-02T19:23:53.265Z,27.35
2022-09-02T19:26:40.091Z,25.15
2022-09-02T19:29:24.431Z,23.98
2022-09-02T19:32:05.167Z,23.23
2022-09-02T19:34:45.912Z,22.13
2022-09-02T19:37:33.067Z,19.60
2022-09-02T19:40:25.077Z,14.77
2022-09-02T19:43:16.050Z,19.02
2022-09-02T19:46:03.186Z,11.55
2022-09-02T19:48:44.286Z,14.40
2022-09-02T19:51:34.053Z,8.35
2022-09-02T19:54:14.162Z,11.90
2022-09-02T19:57:01.069Z,8.90
2022-09-02T19:59:48.063Z,10.23
2022-09-02T20:02:28.520Z,10.13
2022-09-02T20:05:15.065Z,7.13
2022-09-02T20:08:03.040Z,6.00
2022-09-02T20:10:45.952Z,6.00
2022-09-02T20:13:40.062Z,9.07
2022-09-02T20:16:25.275Z,5.50
2022-09-02T20:19:12.050Z,0.82
2022-09-02T20:21:53.179Z,1.23
2022-09-02T20:24:41.045Z,0.65
2022-09-02T20:28:11.040Z,1.10
2022-09-02T20:31:15.084Z,1.50
2022-09-02T20:34:24.037Z,1.13
2022-09-02T20:37:13.369Z,4.68
2022-09-02T20:40:15.010Z,1.40
2022-09-02T20:43:23.177Z,1.83
2022-09-02T20:46:29.027Z,0.20
2022-09-02T20:49:36.017Z,5.90
2022-09-02T20:52:37.994Z,0.35
2022-09-02T20:55:24.245Z,2.35
2022-09-02T20:58:34.990Z,0.28
2022-09-02T21:01:31.030Z,0.35
2022-09-02T21:04:33.081Z,2.65
2022-09-02T21:07:49.032Z,0.10
2022-09-02T21:10:36.078Z,0.05
2022-09-02T21:13:53.966Z,0.30
2022-09-02T21:16:43.145Z,0.30
2022-09-02T21:19:37.967Z,1.92
2022-09-02T21:22:37.012Z,0.15
2022-09-02T21:25:27.613Z,1.55
2022-09-02T21:28:29.969Z,0.32
2022-09-02T21:31:43.020Z,1.40
2022-09-02T21:34:43.118Z,2.80
2022-09-02T21:37:29.978Z,0.03
2022-09-02T21:40:15.105Z,0.20
2022-09-02T21:43:23.983Z,0.10
2022-09-02T21:46:20.940Z,3.13
2022-09-02T21:49:37.929Z,3.65
2022-09-02T21:53:09.917Z,1.17
2022-09-02T21:55:56.056Z,1.60
2022-09-02T21:58:57.938Z,0.40
2022-09-02T22:01:44.441Z,0.50
2022-09-02T22:05:15.934Z,0.65
2022-09-02T22:08:06.937Z,2.25
2022-09-02T22:11:32.910Z,0.68
2022-09-02T22:14:29.018Z,1.90
2022-09-02T22:17:14.907Z,1.48
2022-09-02T22:20:05.906Z,0.68
2022-09-02T22:23:02.905Z,1.73
2022-09-02T22:25:43.345Z,1.48
2022-09-02T22:28:41.910Z,0.73
2022-09-02T22:31:26.159Z,1.35
2022-09-02T22:34:19.878Z,0.20
2022-09-02T22:37:14.857Z,0.55
2022-09-02T22:40:09.869Z,0.88
2022-09-02T22:42:57.187Z,2.25
2022-09-02T22:46:07.946Z,1.35
2022-09-02T22:49:31.868Z,2.47
2022-09-02T22:52:40.589Z,2.08
2022-09-02T22:55:52.873Z,0.82
2022-09-02T22:58:51.879Z,1.48
2022-09-02T23:02:17.884Z,2.28
2022-09-02T23:05:16.903Z,1.40
2022-09-02T23:07:57.302Z,2.20
2022-09-02T23:10:43.817Z,1.75
2022-09-02T23:14:02.886Z,1.73
2022-09-02T23:16:52.959Z,1.83
2022-09-02T23:19:57.866Z,0.60
2022-09-02T23:23:10.836Z,1.50
2022-09-02T23:26:22.873Z,1.02
2022-09-02T23:29:17.510Z,2.35
2022-09-02T23:32:39.850Z,1.73
2022-09-02T23:35:32.854Z,0.73
2022-09-02T23:38:31.382Z,2.45
2022-09-02T23:41:18.835Z,5.22
2022-09-02T23:44:05.831Z,2.08
2022-09-02T23:47:07.801Z,2.05
2022-09-02T23:50:17.785Z,0.30
2022-09-02T23:53:04.279Z,0.50
2022-09-02T23:56:08.833Z,1.85
2022-09-02T23:59:05.841Z,0.52
